Time;durP1;ratioP1;P1;durP2;ratioP2;P2;SDS_P1;SDS_P2;PMS_P1;PMS_P2;Temp;Humidity;BMP_temperature;BMP_pressure;BME280_temperature;BME280_humidity;BME280_pressure;Samples;Min_cycle;Max_cycle;Signal;HPM_P1;HPM_P2
2023/07/16 00:00:58;;;;;;;7.22;2.15;;;18.50;99.90;;;;;;4971171;28;20034;-84
2023/07/16 00:03:24;;;;;;;5.97;2.35;;;18.50;99.90;;;;;;4955109;28;20041;-85
2023/07/16 00:05:51;;;;;;;6.90;2.08;;;18.50;99.90;;;;;;4955162;28;20026;-84
2023/07/16 00:08:16;;;;;;;9.25;2.30;;;18.50;99.90;;;;;;4968289;28;20046;-83
2023/07/16 00:10:42;;;;;;;5.10;2.15;;;18.60;99.90;;;;;;4950659;28;20050;-86
2023/07/16 00:13:07;;;;;;;2.53;2.33;;;18.50;99.90;;;;;;4952006;28;20034;-84
2023/07/16 00:15:35;;;;;;;3.13;2.30;;;18.50;99.90;;;;;;4955151;28;20056;-85
2023/07/16 00:18:03;;;;;;;5.22;2.25;;;18.40;99.90;;;;;;4966770;28;20053;-84
2023/07/16 00:20:29;;;;;;;5.10;2.25;;;18.40;99.90;;;;;;4953507;28;20034;-83
2023/07/16 00:22:54;;;;;;;4.80;2.10;;;18.40;99.90;;;;;;4969401;28;20049;-83
2023/07/16 00:25:20;;;;;;;3.75;2.00;;;18.40;99.90;;;;;;4952781;28;20423;-83
2023/07/16 00:27:46;;;;;;;6.85;2.60;;;18.30;99.90;;;;;;4987648;28;20055;-82
2023/07/16 00:30:12;;;;;;;2.95;2.33;;;18.20;99.90;;;;;;4975158;28;20079;-85
2023/07/16 00:32:38;;;;;;;5.28;2.53;;;18.30;99.90;;;;;;4950583;28;20130;-85
2023/07/16 00:35:05;;;;;;;6.38;2.15;;;18.30;99.90;;;;;;4945674;28;20098;-88
2023/07/16 00:37:31;;;;;;;5.65;2.70;;;18.30;99.90;;;;;;4953262;28;20475;-83
2023/07/16 00:39:56;;;;;;;6.55;2.00;;;18.20;99.90;;;;;;4953483;28;20034;-83
2023/07/16 00:42:22;;;;;;;7.85;2.00;;;18.20;99.90;;;;;;4952213;28;20043;-85
2023/07/16 00:44:48;;;;;;;5.60;1.98;;;18.20;99.90;;;;;;4952455;28;20026;-82
2023/07/16 00:47:13;;;;;;;4.03;2.05;;;18.10;99.90;;;;;;4969405;28;20031;-82
2023/07/16 00:49:39;;;;;;;5.20;1.70;;;18.00;99.90;;;;;;4966179;28;20062;-82
2023/07/16 00:52:12;;;;;;;8.75;2.00;;;18.00;99.90;;;;;;4966647;28;20030;-83
2023/07/16 00:54:38;;;;;;;6.70;1.67;;;17.90;99.90;;;;;;4948974;28;20399;-84
2023/07/16 00:57:04;;;;;;;2.10;1.58;;;17.80;99.90;;;;;;4949314;28;20034;-84
2023/07/16 00:59:30;;;;;;;3.30;2.33;;;17.70;99.90;;;;;;4969552;28;20023;-84
2023/07/16 01:01:55;;;;;;;4.88;2.33;;;17.80;99.90;;;;;;4970218;28;20031;-84
2023/07/16 01:04:21;;;;;;;4.57;1.58;;;17.80;99.90;;;;;;4969518;28;20123;-84
2023/07/16 01:06:53;;;;;;;4.82;2.00;;;17.70;99.90;;;;;;4966407;28;20478;-84
2023/07/16 01:09:22;;;;;;;4.27;1.87;;;17.70;99.90;;;;;;4973724;28;20037;-83
2023/07/16 01:11:49;;;;;;;4.93;1.67;;;17.60;99.90;;;;;;4956283;28;20039;-89
2023/07/16 01:14:17;;;;;;;3.53;1.88;;;17.50;99.90;;;;;;4956419;28;20086;-89
2023/07/16 01:16:43;;;;;;;7.63;1.85;;;17.50;99.90;;;;;;4946126;28;20026;-83
2023/07/16 01:19:09;;;;;;;11.18;1.85;;;17.60;99.90;;;;;;4951485;28;20121;-90
2023/07/16 01:22:01;;;;;;;5.85;2.13;;;17.50;99.90;;;;;;4947995;28;20035;-82
2023/07/16 01:25:14;;;;;;;5.07;1.70;;;17.60;99.90;;;;;;4938843;28;20034;-91
2023/07/16 01:28:07;;;;;;;3.22;1.83;;;17.60;99.90;;;;;;4955150;28;20023;-82
2023/07/16 01:30:33;;;;;;;;;;;17.60;99.90;;;;;;4968418;28;20073;-86
2023/07/16 01:33:01;;;;;;;3.42;1.75;;;17.60;99.90;;;;;;4950322;28;19923;-90
2023/07/16 01:35:27;;;;;;;4.55;1.90;;;17.60;99.90;;;;;;4952099;28;20041;-85
2023/07/16 01:37:52;;;;;;;4.88;2.20;;;17.60;99.90;;;;;;4965598;28;20157;-83
2023/07/16 01:40:18;;;;;;;8.77;2.15;;;17.70;99.90;;;;;;4967574;28;20113;-84
2023/07/16 01:42:43;;;;;;;3.35;1.75;;;17.70;99.90;;;;;;4945000;28;20481;-84
2023/07/16 01:45:09;;;;;;;7.18;1.70;;;17.70;99.90;;;;;;4949096;28;20368;-82
2023/07/16 01:47:37;;;;;;;6.65;1.80;;;17.60;99.90;;;;;;4951858;28;20023;-83
2023/07/16 01:50:03;;;;;;;5.35;1.88;;;17.70;99.90;;;;;;4965339;28;20027;-89
2023/07/16 01:52:29;;;;;;;6.40;2.10;;;17.70;99.90;;;;;;4970614;28;20438;-90
2023/07/16 01:54:55;;;;;;;8.05;1.95;;;17.70;99.90;;;;;;4957665;28;20026;-89
2023/07/16 01:57:20;;;;;;;2.45;2.10;;;17.70;99.90;;;;;;4954874;28;20597;-89
2023/07/16 01:59:46;;;;;;;9.95;2.25;;;17.70;99.90;;;;;;4953604;28;20078;-89
2023/07/16 02:02:12;;;;;;;7.38;2.20;;;17.60;99.90;;;;;;4971220;28;20087;-89
2023/07/16 02:04:37;;;;;;;7.57;1.95;;;17.60;99.90;;;;;;4949394;28;20121;-90
2023/07/16 02:07:03;;;;;;;4.88;2.00;;;17.60;99.90;;;;;;4969772;28;20046;-89
2023/07/16 02:09:29;;;;;;;7.65;2.00;;;17.50;99.90;;;;;;4968743;28;20023;-89
2023/07/16 02:11:55;;;;;;;4.72;2.13;;;17.40;99.90;;;;;;4965011;28;20054;-89
2023/07/16 02:14:20;;;;;;;7.40;2.38;;;17.50;99.90;;;;;;4968139;28;20019;-84
2023/07/16 02:16:46;;;;;;;8.93;2.20;;;17.40;99.90;;;;;;4968884;28;20475;-89
2023/07/16 02:19:11;;;;;;;4.32;1.90;;;17.40;99.90;;;;;;4951036;28;20118;-84
2023/07/16 02:21:37;;;;;;;3.38;2.13;;;17.40;99.90;;;;;;4951745;28;20026;-85
2023/07/16 02:24:03;;;;;;;3.83;2.30;;;17.30;99.90;;;;;;4952255;28;20027;-85
2023/07/16 02:26:30;;;;;;;7.07;2.30;;;17.30;99.90;;;;;;4952097;28;20082;-88
2023/07/16 02:28:55;;;;;;;7.43;2.30;;;17.30;99.90;;;;;;4952577;28;20116;-85
2023/07/16 02:31:21;;;;;;;3.47;2.22;;;17.30;99.90;;;;;;4981606;28;20015;-84
2023/07/16 02:33:46;;;;;;;7.40;2.17;;;17.30;99.90;;;;;;4976163;28;20023;-86
2023/07/16 02:36:14;;;;;;;10.32;2.58;;;17.40;99.90;;;;;;4973353;28;20062;-85
2023/07/16 02:38:42;;;;;;;2.53;2.03;;;17.40;99.90;;;;;;4952260;28;20030;-85
2023/07/16 02:41:07;;;;;;;9.57;2.38;;;17.50;99.90;;;;;;4938999;28;20031;-85
2023/07/16 02:43:33;;;;;;;9.07;2.42;;;17.50;99.90;;;;;;4968737;28;20034;-88
2023/07/16 02:45:59;;;;;;;7.53;2.05;;;17.50;99.90;;;;;;4970340;28;20039;-88
2023/07/16 02:48:24;;;;;;;7.85;2.55;;;17.50;99.90;;;;;;4950255;28;20039;-88
2023/07/16 02:50:50;;;;;;;7.80;2.63;;;17.50;99.90;;;;;;4953470;28;20656;-88
2023/07/16 02:53:15;;;;;;;6.00;2.50;;;17.50;99.90;;;;;;4950374;28;20030;-88
2023/07/16 02:55:41;;;;;;;3.40;2.20;;;17.50;99.90;;;;;;4952307;28;20040;-89
2023/07/16 02:58:06;;;;;;;4.97;2.60;;;17.50;99.90;;;;;;4967188;28;20023;-88
2023/07/16 03:00:35;;;;;;;6.05;2.28;;;17.60;99.90;;;;;;4952524;28;20027;-89
2023/07/16 03:03:00;;;;;;;4.13;2.47;;;17.60;99.90;;;;;;4947739;28;20023;-88
2023/07/16 03:05:28;;;;;;;9.35;2.60;;;17.60;99.90;;;;;;4951258;28;20129;-89
2023/07/16 03:07:54;;;;;;;6.43;2.60;;;17.60;99.90;;;;;;4953044;28;20023;-90
2023/07/16 03:10:26;;;;;;;8.93;2.90;;;17.50;99.90;;;;;;4952564;28;20025;-89
2023/07/16 03:12:54;;;;;;;7.78;2.42;;;17.60;99.90;;;;;;4967444;28;20650;-85
2023/07/16 03:15:20;;;;;;;12.75;2.85;;;17.40;99.90;;;;;;4963867;28;20027;-84
2023/07/16 03:17:48;;;;;;;7.40;2.95;;;17.50;99.90;;;;;;4965320;28;20027;-83
2023/07/16 03:20:13;;;;;;;7.85;2.90;;;17.50;99.90;;;;;;4967670;28;20399;-84
2023/07/16 03:22:39;;;;;;;9.93;2.67;;;17.60;99.90;;;;;;4948838;28;20026;-83
2023/07/16 03:25:05;;;;;;;7.28;2.90;;;17.60;99.90;;;;;;4970707;28;20045;-91
2023/07/16 03:27:33;;;;;;;7.25;2.47;;;17.60;99.90;;;;;;4955838;28;20431;-89
2023/07/16 03:29:59;;;;;;;17.33;2.33;;;17.60;99.90;;;;;;4950926;28;20113;-84
2023/07/16 03:32:24;;;;;;;4.80;2.20;;;17.60;99.90;;;;;;4965428;28;20106;-83
2023/07/16 03:34:50;;;;;;;6.32;2.40;;;17.60;99.90;;;;;;4965108;28;20096;-84
2023/07/16 03:37:18;;;;;;;7.00;2.33;;;17.60;99.90;;;;;;4949214;28;20045;-82
2023/07/16 03:39:43;;;;;;;3.88;2.28;;;17.60;99.90;;;;;;4963353;28;20499;-82
2023/07/16 03:42:09;;;;;;;12.00;2.08;;;17.50;99.90;;;;;;4948534;28;20108;-82
2023/07/16 03:44:34;;;;;;;6.70;2.20;;;17.60;99.90;;;;;;4952150;28;20407;-92
2023/07/16 03:47:00;;;;;;;5.95;2.08;;;17.60;99.90;;;;;;4949258;28;20524;-89
2023/07/16 03:49:25;;;;;;;10.45;2.33;;;17.50;99.90;;;;;;4951798;28;20027;-89
2023/07/16 03:51:51;;;;;;;11.50;2.30;;;17.40;99.90;;;;;;4950388;28;20224;-87
2023/07/16 03:54:17;;;;;;;7.47;2.50;;;17.40;99.90;;;;;;4967636;28;20041;-89
2023/07/16 03:56:44;;;;;;;5.47;2.20;;;17.40;99.90;;;;;;4946757;28;20027;-88
2023/07/16 03:59:10;;;;;;;9.70;2.20;;;17.30;99.90;;;;;;4953086;28;20023;-90
2023/07/16 04:01:35;;;;;;;4.80;2.20;;;17.30;99.90;;;;;;4952754;28;20415;-83
2023/07/16 04:04:01;;;;;;;8.23;2.13;;;17.40;99.90;;;;;;4947219;28;20179;-89
2023/07/16 04:06:26;;;;;;;8.82;2.63;;;17.40;99.90;;;;;;4953740;28;20030;-89
2023/07/16 04:08:52;;;;;;;9.73;3.10;;;17.30;99.90;;;;;;4954043;28;20027;-89
2023/07/16 04:11:20;;;;;;;6.55;2.20;;;17.40;99.90;;;;;;4958185;28;20541;-88
2023/07/16 04:13:45;;;;;;;5.68;2.28;;;17.40;99.90;;;;;;4954213;28;20038;-89
2023/07/16 04:16:11;;;;;;;4.45;2.20;;;17.40;99.90;;;;;;4972202;28;20023;-89
2023/07/16 04:18:36;;;;;;;4.78;2.38;;;17.40;99.90;;;;;;4956597;28;20530;-88
2023/07/16 04:21:02;;;;;;;14.43;2.55;;;17.30;99.90;;;;;;4970173;28;20093;-86
2023/07/16 04:23:28;;;;;;;8.48;2.53;;;17.40;99.90;;;;;;4955930;28;20037;-84
2023/07/16 04:25:55;;;;;;;7.70;2.38;;;17.40;99.90;;;;;;4949960;28;20027;-83
2023/07/16 04:28:20;;;;;;;7.95;2.60;;;17.40;99.90;;;;;;4971700;28;20180;-90
2023/07/16 04:30:46;;;;;;;9.77;2.38;;;17.40;99.90;;;;;;4955839;28;20360;-90
2023/07/16 04:33:12;;;;;;;7.72;2.85;;;17.40;99.90;;;;;;4949730;28;20130;-90
2023/07/16 04:35:37;;;;;;;14.85;2.63;;;17.50;99.90;;;;;;4986742;28;20035;-90
2023/07/16 04:38:03;;;;;;;8.00;2.53;;;17.50;99.90;;;;;;4994045;28;20027;-87
2023/07/16 04:40:31;;;;;;;6.97;2.70;;;17.30;99.90;;;;;;4955079;28;20082;-90
2023/07/16 04:42:57;;;;;;;10.52;2.90;;;17.40;99.90;;;;;;4971194;28;20038;-89
2023/07/16 04:45:25;;;;;;;11.50;2.65;;;17.40;99.90;;;;;;4955624;28;20031;-89
2023/07/16 04:47:51;;;;;;;11.30;2.95;;;17.50;99.90;;;;;;4955406;28;20293;-90
2023/07/16 04:50:16;;;;;;;4.28;2.90;;;17.50;99.90;;;;;;4956324;28;20026;-88
2023/07/16 04:52:42;;;;;;;15.93;3.53;;;17.40;99.90;;;;;;4971528;28;20031;-88
2023/07/16 04:55:08;;;;;;;5.18;2.75;;;17.40;99.90;;;;;;4966953;28;20114;-81
2023/07/16 04:57:34;;;;;;;13.32;2.85;;;17.50;99.90;;;;;;4968614;28;20616;-83
2023/07/16 05:00:00;;;;;;;10.35;3.10;;;17.50;99.90;;;;;;4947626;28;20027;-84
2023/07/16 05:02:25;;;;;;;14.88;3.88;;;17.60;99.90;;;;;;4952846;28;20039;-83
2023/07/16 05:04:51;;;;;;;14.98;3.20;;;17.60;99.90;;;;;;4971864;28;20126;-88
2023/07/16 05:07:17;;;;;;;5.68;3.20;;;17.50;99.90;;;;;;4971089;28;20041;-91
2023/07/16 05:09:43;;;;;;;11.38;3.15;;;17.60;99.90;;;;;;4973148;28;20030;-89
2023/07/16 05:12:09;;;;;;;9.75;3.30;;;17.60;99.90;;;;;;4955744;28;20051;-91
2023/07/16 05:14:45;;;;;;;8.88;3.70;;;17.70;99.90;;;;;;4954674;28;20071;-89
2023/07/16 05:17:12;;;;;;;12.90;3.22;;;17.70;99.90;;;;;;4970088;28;20026;-82
2023/07/16 05:19:37;;;;;;;12.85;3.60;;;17.70;99.90;;;;;;4982826;28;20027;-88
2023/07/16 05:22:03;;;;;;;8.55;3.45;;;17.80;99.90;;;;;;4979437;28;20030;-87
2023/07/16 05:24:28;;;;;;;6.35;3.45;;;17.70;99.90;;;;;;4989666;28;20270;-92
2023/07/16 05:26:54;;;;;;;13.50;3.38;;;17.80;99.90;;;;;;4991717;28;20107;-93
2023/07/16 05:29:20;;;;;;;15.25;4.18;;;17.70;99.90;;;;;;4953966;28;20024;-93
2023/07/16 05:31:46;;;;;;;8.63;3.45;;;17.80;99.90;;;;;;4954697;28;20502;-91
2023/07/16 05:34:12;;;;;;;10.07;3.88;;;17.90;99.90;;;;;;4973592;28;20018;-91
2023/07/16 05:36:38;;;;;;;12.07;3.85;;;17.90;99.90;;;;;;4970080;28;20023;-90
2023/07/16 05:39:03;;;;;;;13.35;3.72;;;17.90;99.90;;;;;;4954701;28;20033;-90
2023/07/16 05:41:29;;;;;;;5.55;3.03;;;17.90;99.90;;;;;;4953869;28;20115;-83
2023/07/16 05:43:54;;;;;;;9.07;3.13;;;18.00;99.90;;;;;;4948724;28;20035;-83
2023/07/16 05:46:20;;;;;;;11.75;3.22;;;18.00;99.90;;;;;;4970204;28;20035;-88
2023/07/16 05:48:45;;;;;;;11.48;3.20;;;18.00;99.90;;;;;;4964889;28;20023;-87
2023/07/16 05:51:13;;;;;;;10.25;3.58;;;18.10;99.90;;;;;;4965590;28;20077;-83
2023/07/16 05:53:39;;;;;;;15.32;3.38;;;18.20;99.90;;;;;;4966608;28;20118;-88
2023/07/16 05:56:04;;;;;;;7.90;2.88;;;18.20;99.90;;;;;;4967777;28;20117;-87
2023/07/16 05:58:30;;;;;;;7.40;3.08;;;18.20;99.90;;;;;;4952157;28;20034;-82
2023/07/16 06:00:56;;;;;;;11.20;3.42;;;18.30;99.90;;;;;;4950316;28;20088;-83
2023/07/16 06:03:21;;;;;;;10.82;3.08;;;18.30;99.90;;;;;;4951887;28;20034;-81
2023/07/16 06:05:47;;;;;;;11.40;4.03;;;18.40;99.90;;;;;;4941309;28;20070;-82
2023/07/16 06:08:15;;;;;;;10.73;4.03;;;18.30;99.90;;;;;;4966753;28;20035;-83
2023/07/16 06:10:43;;;;;;;5.72;3.25;;;18.40;99.90;;;;;;4969168;28;20023;-83
2023/07/16 06:13:08;;;;;;;11.13;3.67;;;18.50;99.90;;;;;;4970734;28;20023;-83
2023/07/16 06:15:37;;;;;;;9.98;3.40;;;18.50;99.90;;;;;;4946612;28;20022;-82
2023/07/16 06:18:02;;;;;;;7.95;3.45;;;18.50;99.90;;;;;;4965216;28;20026;-88
2023/07/16 06:20:28;;;;;;;9.00;3.55;;;18.50;99.90;;;;;;4952466;28;20082;-83
2023/07/16 06:22:54;;;;;;;10.70;3.75;;;18.60;99.90;;;;;;4942423;28;20133;-82
2023/07/16 06:25:20;;;;;;;6.45;3.42;;;18.60;99.90;;;;;;4969416;28;20110;-81
2023/07/16 06:27:45;;;;;;;12.63;3.95;;;18.60;99.90;;;;;;4969585;28;20034;-92
2023/07/16 06:30:13;;;;;;;10.93;4.28;;;18.80;99.90;;;;;;4984240;28;20034;-91
2023/07/16 06:32:39;;;;;;;7.50;3.47;;;18.80;99.90;;;;;;4958980;28;20033;-88
2023/07/16 06:35:08;;;;;;;7.82;4.05;;;18.90;99.90;;;;;;4957336;28;20109;-89
2023/07/16 06:37:33;;;;;;;9.15;4.35;;;18.80;99.90;;;;;;4958075;28;20030;-88
2023/07/16 06:39:59;;;;;;;11.80;3.85;;;18.90;99.90;;;;;;4963234;28;20023;-89
2023/07/16 06:42:25;;;;;;;16.02;4.20;;;18.80;99.90;;;;;;4964734;28;20045;-91
2023/07/16 06:44:50;;;;;;;11.57;4.68;;;18.90;99.90;;;;;;4957361;28;20030;-94
2023/07/16 06:47:16;;;;;;;11.70;3.55;;;19.00;99.90;;;;;;4959877;28;20483;-92
2023/07/16 06:49:41;;;;;;;10.00;4.43;;;19.00;99.90;;;;;;4956124;28;20059;-89
2023/07/16 06:52:08;;;;;;;8.10;4.13;;;19.00;99.90;;;;;;4955960;28;20089;-94
2023/07/16 06:54:34;;;;;;;10.38;3.83;;;19.00;99.90;;;;;;4938244;28;20506;-91
2023/07/16 06:56:59;;;;;;;8.13;4.50;;;19.00;99.90;;;;;;4957240;28;20038;-93
2023/07/16 06:59:25;;;;;;;7.00;3.67;;;19.10;99.90;;;;;;4955177;28;20023;-86
2023/07/16 07:01:51;;;;;;;12.85;3.97;;;18.90;99.90;;;;;;4945657;28;20605;-83
2023/07/16 07:04:17;;;;;;;8.60;3.65;;;19.00;99.90;;;;;;4969732;28;20030;-83
2023/07/16 07:06:45;;;;;;;11.02;4.30;;;18.90;99.90;;;;;;4968892;28;20384;-88
2023/07/16 07:09:10;;;;;;;8.40;3.80;;;19.00;99.90;;;;;;4969142;28;20030;-83
2023/07/16 07:11:36;;;;;;;12.70;4.57;;;19.00;99.90;;;;;;4949506;28;20395;-83
2023/07/16 07:14:01;;;;;;;15.88;4.90;;;19.00;99.90;;;;;;4965967;28;20030;-82
2023/07/16 07:16:27;;;;;;;14.88;4.10;;;19.20;99.90;;;;;;4962887;28;20665;-90
2023/07/16 07:18:53;;;;;;;10.25;4.00;;;19.30;99.90;;;;;;4952927;28;20086;-90
2023/07/16 07:21:18;;;;;;;11.38;4.70;;;19.30;99.90;;;;;;4969250;28;20064;-82
2023/07/16 07:23:44;;;;;;;9.55;4.20;;;19.30;99.90;;;;;;4969898;28;20487;-85
2023/07/16 07:26:09;;;;;;;12.30;4.80;;;19.30;99.90;;;;;;4968873;28;20050;-90
2023/07/16 07:28:35;;;;;;;19.02;5.30;;;19.50;99.90;;;;;;4963982;28;20390;-83
2023/07/16 07:31:01;;;;;;;16.58;4.82;;;19.60;99.90;;;;;;4949546;28;20041;-84
2023/07/16 07:33:26;;;;;;;11.38;3.80;;;19.60;99.90;;;;;;4944669;28;20117;-86
2023/07/16 07:35:55;;;;;;;14.55;4.93;;;19.70;99.90;;;;;;4955431;28;20027;-82
2023/07/16 07:38:21;;;;;;;13.93;4.45;;;19.80;99.90;;;;;;4974309;28;20094;-92
2023/07/16 07:40:46;;;;;;;14.88;4.90;;;19.80;99.90;;;;;;4962282;28;20046;-87
2023/07/16 07:43:14;;;;;;;11.70;4.35;;;19.90;99.90;;;;;;4977946;28;20104;-86
2023/07/16 07:45:40;;;;;;;12.48;4.30;;;19.80;99.90;;;;;;4981779;28;20011;-89
2023/07/16 07:48:08;;;;;;;53.13;20.90;;;20.00;99.90;;;;;;4974732;28;20041;-83
2023/07/16 07:50:34;;;;;;;11.32;5.40;;;20.20;99.90;;;;;;4990537;28;20039;-92
2023/07/16 07:52:59;;;;;;;16.67;5.13;;;20.10;99.90;;;;;;4957118;28;20030;-85
2023/07/16 07:55:25;;;;;;;14.57;5.05;;;20.20;99.90;;;;;;4953722;28;20035;-87
2023/07/16 07:57:51;;;;;;;13.45;6.75;;;20.40;99.90;;;;;;4973843;28;20023;-86
2023/07/16 08:00:16;;;;;;;9.27;4.45;;;20.60;99.90;;;;;;4961946;28;20031;-87
2023/07/16 08:02:44;;;;;;;12.98;4.70;;;20.30;99.90;;;;;;4973446;28;20031;-84
2023/07/16 08:05:10;;;;;;;10.88;4.72;;;20.40;99.90;;;;;;4972840;28;20033;-86
2023/07/16 08:07:36;;;;;;;11.25;5.18;;;20.30;99.90;;;;;;4956077;28;20031;-84
2023/07/16 08:10:01;;;;;;;15.52;5.60;;;20.50;99.90;;;;;;4957248;28;20552;-91
2023/07/16 08:12:27;;;;;;;15.60;4.47;;;20.70;99.90;;;;;;4975513;28;20034;-89
2023/07/16 08:14:53;;;;;;;10.18;4.10;;;20.80;99.90;;;;;;4962995;28;20051;-89
2023/07/16 08:17:18;;;;;;;14.48;4.93;;;20.80;99.90;;;;;;4957871;28;20037;-89
2023/07/16 08:19:44;;;;;;;14.20;5.20;;;20.90;99.20;;;;;;4956933;28;20031;-85
2023/07/16 08:22:11;;;;;;;15.60;5.38;;;20.90;99.80;;;;;;4956346;28;20033;-85
2023/07/16 08:24:37;;;;;;;16.23;5.13;;;21.00;98.80;;;;;;4954366;28;20059;-84
2023/07/16 08:27:03;;;;;;;8.65;4.47;;;21.10;98.70;;;;;;4966171;28;20073;-86
2023/07/16 08:29:28;;;;;;;15.75;5.28;;;21.10;98.30;;;;;;4951447;28;20027;-89
2023/07/16 08:31:54;;;;;;;9.57;4.43;;;21.20;98.30;;;;;;4960345;28;20018;-87
2023/07/16 08:34:19;;;;;;;170.48;80.90;;;21.50;98.10;;;;;;4953694;28;20034;-83
2023/07/16 08:36:45;;;;;;;72.68;27.50;;;21.50;97.60;;;;;;4947525;28;20042;-82
2023/07/16 08:39:11;;;;;;;11.57;5.00;;;21.60;97.90;;;;;;4973801;28;20482;-88
2023/07/16 08:41:38;;;;;;;11.63;4.65;;;21.70;97.20;;;;;;4957517;28;20072;-89
2023/07/16 08:44:04;;;;;;;11.93;4.80;;;21.70;96.80;;;;;;4968953;28;20062;-88
2023/07/16 08:46:29;;;;;;;14.07;4.95;;;21.60;96.80;;;;;;4959350;28;20027;-85
2023/07/16 08:48:56;;;;;;;10.50;4.57;;;21.90;96.70;;;;;;4958381;28;20054;-86
2023/07/16 08:51:22;;;;;;;5.85;4.18;;;22.20;95.60;;;;;;4955185;28;20023;-86
2023/07/16 08:53:48;;;;;;;12.55;5.07;;;22.50;95.70;;;;;;4951118;28;20387;-86
2023/07/16 08:56:14;;;;;;;13.45;4.90;;;22.60;95.00;;;;;;4949891;28;20037;-85
2023/07/16 08:58:42;;;;;;;15.13;4.65;;;22.70;95.20;;;;;;4968987;28;20026;-86
2023/07/16 09:01:10;;;;;;;11.27;4.05;;;22.70;93.40;;;;;;4955230;28;20018;-84
2023/07/16 09:03:35;;;;;;;15.15;4.78;;;22.50;93.20;;;;;;4971890;28;20123;-90
2023/07/16 09:06:04;;;;;;;11.27;4.53;;;22.60;93.70;;;;;;4958843;28;20162;-89
2023/07/16 09:08:29;;;;;;;7.38;4.25;;;22.60;93.70;;;;;;4957719;28;20407;-87
2023/07/16 09:11:01;;;;;;;7.43;4.45;;;22.80;93.60;;;;;;4972747;28;20222;-88
2023/07/16 09:13:29;;;;;;;9.68;4.18;;;22.70;92.50;;;;;;4958910;28;20050;-90
2023/07/16 09:15:56;;;;;;;9.02;4.07;;;22.90;92.10;;;;;;4960962;28;20130;-86
2023/07/16 09:18:23;;;;;;;9.60;4.22;;;23.20;91.90;;;;;;4956068;28;20121;-89
2023/07/16 09:20:55;;;;;;;11.65;4.45;;;23.30;91.40;;;;;;4958754;28;20086;-86
2023/07/16 09:23:23;;;;;;;9.98;3.75;;;23.60;91.20;;;;;;4953950;28;20054;-85
2023/07/16 09:25:50;;;;;;;52.30;23.63;;;23.60;91.10;;;;;;4948275;28;20462;-81
2023/07/16 09:28:19;;;;;;;34.45;15.88;;;23.70;89.80;;;;;;4969951;28;20031;-84
2023/07/16 09:30:48;;;;;;;17.63;8.70;;;23.80;88.90;;;;;;4954462;28;20094;-82
2023/07/16 09:33:16;;;;;;;9.20;4.05;;;23.60;88.00;;;;;;4942330;28;20462;-83
2023/07/16 09:35:42;;;;;;;8.73;4.18;;;23.70;88.80;;;;;;4953164;28;20023;-84
2023/07/16 09:38:09;;;;;;;9.60;3.90;;;23.90;88.40;;;;;;4965961;28;20034;-84
2023/07/16 09:40:37;;;;;;;8.77;4.13;;;23.80;87.80;;;;;;4957212;28;20121;-84
2023/07/16 09:43:04;;;;;;;9.48;4.00;;;23.80;87.80;;;;;;4950906;28;20038;-84
2023/07/16 09:45:29;;;;;;;8.00;4.10;;;23.80;86.90;;;;;;4968781;28;20066;-86
2023/07/16 09:47:55;;;;;;;8.55;4.07;;;23.60;86.80;;;;;;4949266;28;20053;-85
2023/07/16 09:50:26;;;;;;;6.93;4.07;;;23.30;87.30;;;;;;4964844;28;20081;-82
2023/07/16 09:52:52;;;;;;;7.50;3.72;;;23.80;88.90;;;;;;4957526;28;20019;-84
2023/07/16 09:55:21;;;;;;;6.85;4.60;;;24.20;85.40;;;;;;4950586;28;20490;-82
2023/07/16 09:57:48;;;;;;;5.70;3.17;;;24.70;85.90;;;;;;4940505;28;20128;-81
2023/07/16 10:00:15;;;;;;;13.52;3.80;;;24.20;83.20;;;;;;4965841;28;20165;-85
2023/07/16 10:02:41;;;;;;;6.35;3.90;;;24.50;81.90;;;;;;4947008;28;20330;-80
2023/07/16 10:05:18;;;;;;;12.65;4.13;;;24.30;83.50;;;;;;4963767;28;20050;-80
2023/07/16 10:08:00;;;;;;;10.07;4.00;;;24.30;84.30;;;;;;4964380;28;20030;-81
2023/07/16 10:10:42;;;;;;;8.15;4.20;;;24.40;82.70;;;;;;4970333;28;20105;-81
2023/07/16 10:13:11;;;;;;;9.30;3.88;;;24.30;82.90;;;;;;4938008;28;20053;-81
2023/07/16 10:15:36;;;;;;;12.02;3.85;;;24.30;83.30;;;;;;4957881;28;20055;-83
2023/07/16 10:18:02;;;;;;;8.10;3.80;;;23.80;82.90;;;;;;4954890;28;20030;-83
2023/07/16 10:20:42;;;;;;;5.88;3.55;;;23.60;82.80;;;;;;4938404;28;20408;-82
2023/07/16 10:23:14;;;;;;;8.02;3.95;;;23.60;84.70;;;;;;4964936;28;20066;-83
2023/07/16 10:25:41;;;;;;;10.77;3.50;;;23.30;85.10;;;;;;4941585;28;20526;-82
2023/07/16 10:28:07;;;;;;;8.10;3.65;;;23.40;83.80;;;;;;4963128;28;20320;-88
2023/07/16 10:30:36;;;;;;;9.25;3.85;;;23.60;84.40;;;;;;4963538;28;20054;-84
2023/07/16 10:33:12;;;;;;;8.60;3.45;;;23.70;85.10;;;;;;4966896;28;20011;-82
2023/07/16 10:35:41;;;;;;;8.55;4.00;;;23.50;83.50;;;;;;4950247;28;20509;-83
2023/07/16 10:38:10;;;;;;;10.57;3.70;;;23.30;83.50;;;;;;4949122;28;20027;-84
2023/07/16 10:40:44;;;;;;;9.75;4.43;;;23.20;85.20;;;;;;4970714;28;20081;-81
2023/07/16 10:43:10;;;;;;;8.95;4.05;;;23.30;85.30;;;;;;4947212;28;20085;-81
2023/07/16 10:45:39;;;;;;;8.38;4.18;;;24.20;83.60;;;;;;4968962;28;20035;-81
2023/07/16 10:48:05;;;;;;;9.63;3.90;;;24.80;80.80;;;;;;4969073;28;20102;-81
2023/07/16 10:50:35;;;;;;;6.97;3.63;;;25.00;80.40;;;;;;4968093;28;20337;-84
2023/07/16 10:53:01;;;;;;;9.48;3.83;;;25.10;77.40;;;;;;4963716;28;20113;-81
2023/07/16 10:55:37;;;;;;;4.20;3.00;;;25.60;78.20;;;;;;4945783;28;20344;-80
2023/07/16 10:58:06;;;;;;;7.30;3.33;;;25.10;77.10;;;;;;4965700;28;20022;-86
2023/07/16 11:00:32;;;;;;;7.97;2.90;;;25.20;77.30;;;;;;4941398;28;20018;-79
2023/07/16 11:02:57;;;;;;;6.28;2.85;;;25.80;77.30;;;;;;4940881;28;20114;-81
2023/07/16 11:05:23;;;;;;;8.43;3.92;;;25.70;74.10;;;;;;4965103;28;20563;-81
2023/07/16 11:07:49;;;;;;;8.23;3.17;;;26.10;74.80;;;;;;4962487;28;20039;-79
2023/07/16 11:10:16;;;;;;;15.05;6.60;;;26.10;75.00;;;;;;4966069;28;20039;-80
2023/07/16 11:12:42;;;;;;;5.35;3.22;;;26.50;74.10;;;;;;4946324;28;20030;-80
2023/07/16 11:15:08;;;;;;;9.35;4.00;;;26.20;71.70;;;;;;4948988;28;20015;-81
2023/07/16 11:17:37;;;;;;;7.60;3.20;;;26.40;72.10;;;;;;4948862;28;20360;-80
2023/07/16 11:20:04;;;;;;;7.85;3.30;;;25.70;72.90;;;;;;4964094;28;20559;-81
2023/07/16 11:22:29;;;;;;;7.35;2.97;;;25.20;74.40;;;;;;4949004;28;20023;-80
2023/07/16 11:24:55;;;;;;;7.97;2.70;;;24.80;74.80;;;;;;4965625;28;20394;-81
2023/07/16 11:27:30;;;;;;;6.03;3.40;;;24.60;76.70;;;;;;4949831;28;20085;-79
2023/07/16 11:29:58;;;;;;;2.30;2.08;;;24.30;76.70;;;;;;4963947;28;20084;-78
2023/07/16 11:32:44;;;;;;;7.05;3.38;;;24.10;77.20;;;;;;4966780;28;20042;-78
2023/07/16 11:35:15;;;;;;;5.30;3.38;;;24.00;77.50;;;;;;4943840;28;20030;-85
2023/07/16 11:37:41;;;;;;;8.30;2.75;;;24.10;77.90;;;;;;4970349;28;20035;-78
2023/07/16 11:40:10;;;;;;;5.63;3.22;;;24.00;78.60;;;;;;4947511;28;20034;-82
2023/07/16 11:42:37;;;;;;;8.20;3.40;;;24.20;78.40;;;;;;4961508;28;20599;-78
2023/07/16 11:45:04;;;;;;;7.28;3.60;;;24.60;77.30;;;;;;4965794;28;20106;-88
2023/07/16 11:47:30;;;;;;;5.70;3.10;;;25.00;77.40;;;;;;4943956;28;20023;-79
2023/07/16 11:49:57;;;;;;;6.63;2.75;;;25.00;76.30;;;;;;4962265;28;20086;-87
2023/07/16 11:52:25;;;;;;;4.13;2.90;;;25.10;75.60;;;;;;4950698;28;20110;-79
2023/07/16 11:54:52;;;;;;;4.05;2.95;;;24.90;74.90;;;;;;4958902;28;20155;-82
2023/07/16 11:57:20;;;;;;;7.47;3.40;;;25.10;75.50;;;;;;4954064;28;20085;-79
2023/07/16 11:59:46;;;;;;;6.88;2.53;;;25.30;75.10;;;;;;4946235;28;20253;-78
2023/07/16 12:02:12;;;;;;;4.13;3.10;;;25.30;73.40;;;;;;4962664;28;20030;-84
2023/07/16 12:04:38;;;;;;;4.50;3.00;;;25.60;74.30;;;;;;4949754;28;20034;-84
2023/07/16 12:07:06;;;;;;;6.78;3.13;;;25.80;73.50;;;;;;4945919;28;20031;-89
2023/07/16 12:09:32;;;;;;;8.48;3.55;;;25.80;74.10;;;;;;4959729;28;20110;-83
2023/07/16 12:11:57;;;;;;;11.00;2.80;;;25.60;74.20;;;;;;4960745;28;20467;-80
2023/07/16 12:14:23;;;;;;;7.35;3.10;;;25.60;72.50;;;;;;4959644;28;20027;-81
2023/07/16 12:16:48;;;;;;;4.88;2.97;;;25.60;72.30;;;;;;4946095;28;20098;-81
2023/07/16 12:19:17;;;;;;;6.65;3.13;;;25.70;73.00;;;;;;4944898;28;20023;-81
2023/07/16 12:21:42;;;;;;;4.78;2.42;;;25.80;72.50;;;;;;4963455;28;20034;-82
2023/07/16 12:24:08;;;;;;;4.50;2.78;;;25.90;72.80;;;;;;4950801;28;20587;-81
2023/07/16 12:26:34;;;;;;;3.80;2.97;;;25.50;70.50;;;;;;4965070;28;20035;-81
2023/07/16 12:29:02;;;;;;;9.68;3.35;;;25.10;72.90;;;;;;4948521;28;20030;-82
2023/07/16 12:31:33;;;;;;;6.53;2.92;;;25.40;72.10;;;;;;4961522;28;20483;-81
2023/07/16 12:34:04;;;;;;;5.25;2.80;;;25.70;73.20;;;;;;4965729;28;20023;-83
2023/07/16 12:36:35;;;;;;;8.52;2.85;;;26.00;71.40;;;;;;4964914;28;20019;-83
2023/07/16 12:39:00;;;;;;;5.68;2.80;;;26.00;71.00;;;;;;4966739;28;20019;-91
2023/07/16 12:41:26;;;;;;;4.90;2.30;;;25.90;69.80;;;;;;4948962;28;20042;-86